Corning, Missouri
Current Conditions -  °F | °C
As of 1:53 PM on Saturday 20 Dec 2014 (Local Time) from KFNB Reporting Station
Haze Haze  
Wind Chill: 30°   Ceiling: 600
Heat Index: 35°   Visibility: 5mi
Dew Point: 32°   Wind: 6mph
Humidity: 89%   Direction: 240°WSW
Pressure: 30.08"   Gusts: NA
Location:  40.1428°N, 95.3614°W
Report Text: KFNB 201953Z AUTO 24005KT 5SM BR OVC006 02/00 A3008 RMK AO2 SLP196 T00170000
Loading
Personal Weather Stations






























Interactive Weather Map New forecast layout! Learn more

10-Day Weather Forecast

Advertisements
Track Severe Weather on mobile